Terminal Aerodrome Forecast
Issued by NWS

Home | Current Version | Previous Version | Text Only | Print | Product List | Glossary On
Versions: 1 2 3 4 5 6 7 8 9 10 11 12 13 14
000
FTUS43 KBIS 282339
TAFJMS
TAF
KJMS 282339Z 2900/2924 26025G41KT P6SM SCT070
     FM290400 27023G33KT P6SM BKN060
     FM291000 27022G29KT P6SM SCT060
     FM291500 29027G38KT P6SM SKC=

USA.gov is the U.S. government's official web portal to all federal, state and local government web resources and services.